Time;durP1;ratioP1;P1;durP2;ratioP2;P2;SDS_P1;SDS_P2;PMS_P1;PMS_P2;Temp;Humidity;BMP_temperature;BMP_pressure;BME280_temperature;BME280_humidity;BME280_pressure;Samples;Min_cycle;Max_cycle;Signal;HPM_P1;HPM_P2
2024/03/19 00:00:52;;;;;;;40.83;17.52;;;8.30;99.90;;;;;;5043607;28;20659;-71
2024/03/19 00:03:18;;;;;;;37.80;18.35;;;8.30;99.90;;;;;;5043589;28;20193;-69
2024/03/19 00:05:44;;;;;;;37.05;17.83;;;8.30;99.90;;;;;;5043318;28;20278;-71
2024/03/19 00:08:10;;;;;;;32.78;16.42;;;8.30;99.90;;;;;;5042199;28;20237;-70
2024/03/19 00:10:36;;;;;;;39.35;19.35;;;8.30;99.90;;;;;;5043077;28;20767;-70
2024/03/19 00:13:01;;;;;;;31.63;18.30;;;8.30;99.90;;;;;;5043334;28;20249;-72
2024/03/19 00:15:28;;;;;;;37.17;17.38;;;8.20;99.90;;;;;;5041924;28;21235;-73
2024/03/19 00:17:54;;;;;;;35.33;17.65;;;8.20;99.90;;;;;;5043534;28;20195;-72
2024/03/19 00:20:21;;;;;;;35.33;17.45;;;8.20;99.90;;;;;;5042123;28;20192;-70
2024/03/19 00:22:47;;;;;;;35.65;17.95;;;8.20;99.90;;;;;;5042960;28;20206;-71
2024/03/19 00:25:13;;;;;;;33.42;17.58;;;8.10;99.90;;;;;;5042669;28;20199;-74
2024/03/19 00:27:38;;;;;;;32.10;15.38;;;8.10;99.90;;;;;;5043260;28;20179;-69
2024/03/19 00:30:08;;;;;;;34.10;15.82;;;8.00;99.90;;;;;;5043156;28;20205;-70
2024/03/19 00:32:35;;;;;;;36.13;15.45;;;8.00;99.90;;;;;;5041338;28;20191;-72
2024/03/19 00:35:01;;;;;;;38.80;16.63;;;8.00;99.90;;;;;;5041396;28;20297;-70
2024/03/19 00:37:27;;;;;;;36.20;16.70;;;7.90;99.90;;;;;;5036389;28;20358;-71
2024/03/19 00:39:53;;;;;;;40.08;17.80;;;7.90;99.90;;;;;;5041136;28;20199;-70
2024/03/19 00:42:19;;;;;;;32.83;17.33;;;7.90;99.90;;;;;;5042046;28;20200;-71
2024/03/19 00:44:44;;;;;;;37.00;19.15;;;7.90;99.90;;;;;;5040837;28;20195;-69
2024/03/19 00:47:10;;;;;;;36.03;19.77;;;7.80;99.90;;;;;;5041349;28;20282;-68
2024/03/19 00:49:36;;;;;;;38.40;21.95;;;7.80;99.90;;;;;;5042698;28;20195;-71
2024/03/19 00:52:03;;;;;;;40.22;23.13;;;7.80;99.90;;;;;;5042333;28;20282;-71
2024/03/19 00:54:29;;;;;;;45.05;23.73;;;7.80;99.90;;;;;;5040941;28;20246;-71
2024/03/19 00:56:55;;;;;;;49.47;25.85;;;7.80;99.90;;;;;;5042392;28;20214;-72
2024/03/19 00:59:21;;;;;;;45.58;26.10;;;7.80;99.90;;;;;;5040751;28;20286;-69
2024/03/19 01:01:47;;;;;;;43.90;24.30;;;7.80;99.90;;;;;;5042648;28;20244;-73
2024/03/19 01:04:13;;;;;;;44.33;23.77;;;7.80;99.90;;;;;;5040746;28;20183;-71
2024/03/19 01:06:39;;;;;;;43.17;22.23;;;7.70;99.90;;;;;;5042489;28;20646;-70
2024/03/19 01:09:05;;;;;;;38.78;20.67;;;7.70;99.90;;;;;;5042217;28;20231;-72
2024/03/19 01:11:32;;;;;;;34.88;20.33;;;7.70;99.90;;;;;;5041859;28;20254;-70
2024/03/19 01:13:59;;;;;;;37.13;19.10;;;7.70;99.90;;;;;;5042036;28;20686;-71
2024/03/19 01:16:25;;;;;;;30.15;17.98;;;7.70;99.90;;;;;;5041989;28;20309;-72
2024/03/19 01:18:51;;;;;;;31.40;18.42;;;7.70;99.90;;;;;;5042090;28;20187;-72
2024/03/19 01:21:17;;;;;;;34.53;18.05;;;7.70;99.90;;;;;;5040667;28;20179;-70
2024/03/19 01:23:44;;;;;;;31.15;17.45;;;7.70;99.90;;;;;;5040749;28;20187;-71
2024/03/19 01:26:10;;;;;;;29.83;17.38;;;7.80;99.90;;;;;;5042058;28;20198;-71
2024/03/19 01:28:36;;;;;;;29.55;17.52;;;7.80;99.90;;;;;;5041814;28;20286;-69
2024/03/19 01:31:02;;;;;;;35.25;19.10;;;7.80;99.90;;;;;;5042081;28;20195;-69
2024/03/19 01:33:27;;;;;;;33.78;20.08;;;7.90;99.90;;;;;;5024010;28;20261;-71
2024/03/19 01:35:53;;;;;;;34.72;20.65;;;7.90;99.90;;;;;;5041971;28;20207;-72
2024/03/19 01:38:24;;;;;;;36.95;19.92;;;7.90;99.90;;;;;;5041372;28;20261;-70
2024/03/19 01:40:50;;;;;;;33.33;19.50;;;7.90;99.90;;;;;;5040795;28;20187;-71
2024/03/19 01:43:19;;;;;;;34.90;18.38;;;8.00;99.90;;;;;;5041387;28;20183;-71
2024/03/19 01:45:44;;;;;;;41.15;17.45;;;8.00;99.90;;;;;;5041277;28;20190;-68
2024/03/19 01:48:11;;;;;;;27.83;16.73;;;8.00;99.90;;;;;;5041848;28;20670;-70
2024/03/19 01:50:37;;;;;;;36.42;15.32;;;8.00;99.90;;;;;;5040908;28;20203;-71
2024/03/19 01:53:04;;;;;;;28.10;14.73;;;8.10;99.90;;;;;;5041893;28;20199;-71
2024/03/19 01:55:30;;;;;;;25.92;13.48;;;8.10;99.90;;;;;;5039262;28;20227;-71
2024/03/19 01:57:59;;;;;;;24.30;13.77;;;8.10;99.90;;;;;;5041614;28;20549;-71
2024/03/19 02:00:24;;;;;;;22.27;13.07;;;8.20;99.90;;;;;;5041163;28;20552;-71
2024/03/19 02:02:50;;;;;;;28.20;13.07;;;8.20;99.90;;;;;;5041430;28;20279;-71
2024/03/19 02:05:16;;;;;;;28.27;12.73;;;8.20;99.90;;;;;;5041010;28;20302;-70
2024/03/19 02:07:42;;;;;;;23.65;12.18;;;8.30;99.90;;;;;;5041096;28;20202;-68
2024/03/19 02:10:09;;;;;;;27.13;11.85;;;8.30;99.90;;;;;;5039690;28;20191;-69
2024/03/19 02:12:35;;;;;;;24.48;11.50;;;8.40;99.90;;;;;;5039491;28;20198;-71
2024/03/19 02:15:01;;;;;;;23.50;11.43;;;8.40;99.90;;;;;;5040908;28;20215;-72
2024/03/19 02:17:26;;;;;;;21.42;10.10;;;8.40;99.90;;;;;;5040059;28;20191;-71
2024/03/19 02:19:52;;;;;;;21.77;10.00;;;8.40;99.90;;;;;;5041093;28;20187;-70
2024/03/19 02:22:20;;;;;;;28.55;10.32;;;8.50;99.90;;;;;;5056020;28;20663;-73
2024/03/19 02:24:46;;;;;;;23.67;10.10;;;8.50;99.90;;;;;;5041106;28;20520;-71
2024/03/19 02:27:12;;;;;;;25.30;10.15;;;8.50;99.90;;;;;;5040993;28;20256;-71
2024/03/19 02:29:37;;;;;;;21.83;9.98;;;8.60;99.90;;;;;;5039510;28;21099;-71
2024/03/19 02:32:04;;;;;;;19.55;9.10;;;8.60;99.90;;;;;;5041110;28;20195;-72
2024/03/19 02:34:30;;;;;;;23.98;9.57;;;8.60;99.90;;;;;;5040874;28;20275;-70
2024/03/19 02:36:58;;;;;;;22.25;9.95;;;8.60;99.90;;;;;;5055816;28;20270;-68
2024/03/19 02:39:24;;;;;;;22.48;10.32;;;8.60;99.90;;;;;;5035589;28;20198;-70
2024/03/19 02:41:51;;;;;;;22.85;10.10;;;8.70;99.90;;;;;;5041311;28;20191;-71
2024/03/19 02:44:17;;;;;;;26.90;10.45;;;8.70;99.90;;;;;;5039056;28;20195;-70
2024/03/19 02:46:42;;;;;;;24.50;10.05;;;8.70;99.90;;;;;;5040734;28;20236;-73
2024/03/19 02:49:09;;;;;;;28.40;10.77;;;8.70;99.90;;;;;;5041346;28;20564;-71
2024/03/19 02:51:34;;;;;;;20.95;9.88;;;8.70;99.90;;;;;;5040662;28;20190;-71
2024/03/19 02:54:00;;;;;;;23.50;10.88;;;8.70;99.90;;;;;;5039224;28;20191;-72
2024/03/19 02:56:26;;;;;;;23.70;10.25;;;8.70;99.90;;;;;;5041209;28;20288;-72
2024/03/19 02:58:51;;;;;;;23.35;10.43;;;8.70;99.90;;;;;;5056202;28;20192;-71
2024/03/19 03:01:18;;;;;;;23.83;10.60;;;8.80;99.90;;;;;;5055977;28;20187;-70
2024/03/19 03:03:44;;;;;;;26.13;11.60;;;8.80;99.90;;;;;;5042465;28;20667;-72
2024/03/19 03:06:10;;;;;;;26.88;11.38;;;8.80;99.90;;;;;;5044687;28;20678;-73
2024/03/19 03:08:35;;;;;;;23.75;10.73;;;8.90;99.90;;;;;;5044535;28;20219;-74
2024/03/19 03:11:01;;;;;;;23.85;11.02;;;8.90;99.90;;;;;;5044369;28;20235;-72
2024/03/19 03:13:27;;;;;;;26.23;11.50;;;9.00;99.90;;;;;;5042807;28;20202;-72
2024/03/19 03:15:53;;;;;;;28.20;11.48;;;9.00;99.90;;;;;;5025634;28;20318;-72
2024/03/19 03:18:19;;;;;;;27.92;11.45;;;9.10;99.90;;;;;;5042721;28;20199;-72
2024/03/19 03:20:44;;;;;;;28.27;12.25;;;9.00;99.90;;;;;;5042353;28;20662;-71
2024/03/19 03:23:10;;;;;;;27.80;11.93;;;9.20;99.90;;;;;;5042720;28;20195;-72
2024/03/19 03:25:36;;;;;;;23.30;11.70;;;9.20;99.90;;;;;;5044388;28;20285;-70
2024/03/19 03:28:03;;;;;;;25.13;12.13;;;9.20;99.90;;;;;;5043854;28;20642;-71
2024/03/19 03:30:29;;;;;;;26.05;12.60;;;9.30;99.90;;;;;;5044390;28;20207;-69
2024/03/19 03:32:54;;;;;;;30.08;12.38;;;9.30;99.90;;;;;;5044507;28;20985;-72
2024/03/19 03:35:20;;;;;;;24.60;13.05;;;9.30;99.90;;;;;;5043897;28;20589;-69
2024/03/19 03:37:46;;;;;;;26.90;11.85;;;9.40;99.90;;;;;;5044054;28;20183;-71
2024/03/19 03:40:19;;;;;;;25.13;11.90;;;9.40;99.90;;;;;;5043550;28;20215;-69
2024/03/19 03:42:46;;;;;;;23.40;11.88;;;9.40;99.90;;;;;;5044243;28;20210;-72
2024/03/19 03:45:12;;;;;;;26.13;12.35;;;9.40;99.90;;;;;;5043432;28;20195;-72
2024/03/19 03:47:41;;;;;;;28.70;12.07;;;9.40;99.90;;;;;;5043848;28;20556;-71
2024/03/19 03:50:09;;;;;;;26.58;12.50;;;9.40;99.90;;;;;;5026126;28;20264;-73
2024/03/19 03:52:35;;;;;;;32.95;12.63;;;9.40;99.90;;;;;;5043610;28;20260;-69
2024/03/19 03:55:06;;;;;;;23.48;12.57;;;9.50;99.90;;;;;;5042397;28;20219;-71
2024/03/19 03:57:33;;;;;;;26.73;13.20;;;9.50;99.90;;;;;;5043744;28;20206;-72
2024/03/19 03:59:59;;;;;;;27.75;13.40;;;9.50;99.90;;;;;;5043154;28;20278;-72
2024/03/19 04:02:25;;;;;;;28.00;13.88;;;9.50;99.90;;;;;;5043364;28;20209;-70
2024/03/19 04:04:54;;;;;;;29.80;14.40;;;9.50;99.90;;;;;;5043532;28;20290;-72
2024/03/19 04:07:20;;;;;;;29.77;14.50;;;9.60;99.90;;;;;;5042890;28;20203;-71
2024/03/19 04:09:46;;;;;;;30.33;14.13;;;9.60;99.90;;;;;;5043552;28;20198;-71
2024/03/19 04:12:12;;;;;;;31.80;14.57;;;9.60;99.90;;;;;;5041708;28;20349;-70
2024/03/19 04:14:37;;;;;;;30.23;14.57;;;9.60;99.90;;;;;;5043043;28;20277;-69
2024/03/19 04:17:03;;;;;;;29.42;14.45;;;9.60;99.90;;;;;;5043185;28;20219;-70
2024/03/19 04:19:29;;;;;;;31.98;15.25;;;9.60;99.90;;;;;;5042801;28;20194;-70
2024/03/19 04:21:55;;;;;;;26.75;14.63;;;9.70;99.90;;;;;;5041807;28;20196;-70
2024/03/19 04:24:21;;;;;;;32.42;14.65;;;9.70;99.90;;;;;;5043143;28;20556;-69
2024/03/19 04:26:47;;;;;;;28.17;14.95;;;9.70;99.90;;;;;;5043292;28;20191;-70
2024/03/19 04:29:16;;;;;;;30.80;14.63;;;9.70;99.90;;;;;;5042941;28;20716;-68
2024/03/19 04:31:42;;;;;;;29.52;14.35;;;9.70;99.90;;;;;;5043376;28;20308;-71
2024/03/19 04:34:09;;;;;;;35.75;14.48;;;9.70;99.90;;;;;;5042995;28;20271;-70
2024/03/19 04:36:35;;;;;;;32.20;15.23;;;9.80;99.90;;;;;;5042995;28;20631;-70
2024/03/19 04:39:10;;;;;;;29.20;15.07;;;9.80;99.90;;;;;;5042727;28;20195;-71
2024/03/19 04:41:38;;;;;;;29.60;14.73;;;9.80;99.90;;;;;;5041396;28;20273;-69
2024/03/19 04:44:08;;;;;;;32.80;15.52;;;9.80;99.90;;;;;;5024595;28;20199;-70
2024/03/19 04:46:33;;;;;;;33.85;15.48;;;9.80;99.90;;;;;;5042652;28;20187;-69
2024/03/19 04:48:59;;;;;;;27.10;14.43;;;9.80;99.90;;;;;;5042870;28;20183;-70
2024/03/19 04:51:30;;;;;;;33.60;15.45;;;9.90;99.90;;;;;;5041382;28;20651;-71
2024/03/19 04:53:55;;;;;;;30.40;15.30;;;9.90;99.90;;;;;;5042231;28;20226;-71
2024/03/19 04:56:21;;;;;;;30.55;16.02;;;9.90;99.90;;;;;;5040831;28;20242;-72
2024/03/19 04:58:47;;;;;;;32.63;15.38;;;9.90;99.90;;;;;;5043086;28;20183;-69
2024/03/19 05:01:15;;;;;;;26.15;15.15;;;9.90;99.90;;;;;;5042527;28;20191;-75
2024/03/19 05:03:41;;;;;;;31.40;15.05;;;9.90;99.90;;;;;;5042431;28;20244;-73
2024/03/19 05:06:11;;;;;;;24.67;14.48;;;9.90;99.90;;;;;;5041346;28;20195;-73
2024/03/19 05:08:37;;;;;;;31.55;14.38;;;9.90;99.90;;;;;;5041331;28;20195;-71
2024/03/19 05:11:03;;;;;;;27.02;14.10;;;9.90;99.90;;;;;;5042142;28;20703;-72
2024/03/19 05:13:29;;;;;;;30.98;14.65;;;9.90;99.90;;;;;;5041147;28;20195;-72
2024/03/19 05:15:55;;;;;;;30.20;14.57;;;10.00;99.90;;;;;;5041974;28;20230;-74
2024/03/19 05:18:21;;;;;;;25.27;14.48;;;10.00;99.90;;;;;;5042136;28;20188;-71
2024/03/19 05:20:48;;;;;;;25.33;14.18;;;10.00;99.90;;;;;;5040105;28;20179;-71
2024/03/19 05:23:14;;;;;;;27.52;13.25;;;10.00;99.90;;;;;;5024150;28;20964;-73
2024/03/19 05:25:43;;;;;;;28.20;14.07;;;10.00;99.90;;;;;;5041113;28;20687;-71
2024/03/19 05:28:09;;;;;;;31.30;14.32;;;10.00;99.90;;;;;;5042057;28;20187;-72
2024/03/19 05:30:36;;;;;;;25.35;13.40;;;10.10;99.90;;;;;;5056517;28;20187;-71
2024/03/19 05:33:02;;;;;;;27.67;12.95;;;10.00;99.90;;;;;;5042103;28;20226;-76
2024/03/19 05:35:27;;;;;;;30.23;13.98;;;10.10;99.90;;;;;;5041584;28;20660;-74
2024/03/19 05:37:53;;;;;;;26.08;13.07;;;10.10;99.90;;;;;;5041832;28;20214;-74
2024/03/19 05:40:20;;;;;;;27.83;13.50;;;10.10;99.90;;;;;;5039938;28;20397;-73
2024/03/19 05:42:46;;;;;;;28.65;13.43;;;10.10;99.90;;;;;;5040238;28;20561;-73
2024/03/19 05:45:15;;;;;;;24.25;13.40;;;10.10;99.90;;;;;;5041712;28;20201;-73
2024/03/19 05:47:41;;;;;;;25.50;12.35;;;10.10;99.90;;;;;;5039681;28;20352;-74
2024/03/19 05:50:08;;;;;;;27.48;12.80;;;10.10;99.90;;;;;;5040225;28;20302;-74
2024/03/19 05:52:38;;;;;;;24.88;11.90;;;10.20;99.90;;;;;;5039476;28;20191;-72
2024/03/19 05:55:05;;;;;;;25.77;12.15;;;10.20;99.90;;;;;;5041562;28;20248;-70
2024/03/19 05:57:31;;;;;;;31.10;12.63;;;10.20;99.90;;;;;;5041291;28;20667;-71
2024/03/19 05:59:57;;;;;;;26.50;12.27;;;10.20;99.90;;;;;;5041254;28;20195;-73
2024/03/19 06:02:22;;;;;;;22.30;12.40;;;10.20;99.90;;;;;;5040296;28;20196;-75
2024/03/19 06:04:48;;;;;;;27.95;13.45;;;10.20;99.90;;;;;;5041304;28;20659;-72
2024/03/19 06:07:14;;;;;;;29.05;13.50;;;10.20;99.90;;;;;;5041327;28;20285;-76
2024/03/19 06:09:43;;;;;;;23.85;11.60;;;10.30;99.90;;;;;;5039594;28;20222;-73
2024/03/19 06:12:10;;;;;;;24.30;12.02;;;10.30;99.90;;;;;;5039459;28;20820;-74
2024/03/19 06:14:36;;;;;;;24.42;11.45;;;10.30;99.90;;;;;;5041202;28;20214;-73
2024/03/19 06:17:01;;;;;;;25.33;12.00;;;10.30;99.90;;;;;;5040825;28;20195;-73
2024/03/19 06:19:27;;;;;;;21.77;11.95;;;10.30;99.90;;;;;;5040939;28;20227;-75
2024/03/19 06:21:53;;;;;;;24.02;11.75;;;10.30;99.90;;;;;;5041156;28;20284;-73
2024/03/19 06:24:18;;;;;;;23.92;11.82;;;10.30;99.90;;;;;;5009719;28;20188;-71
2024/03/19 06:26:44;;;;;;;22.13;11.77;;;10.30;99.90;;;;;;5040749;28;20204;-73
2024/03/19 06:29:10;;;;;;;21.38;11.57;;;10.30;99.90;;;;;;5041104;28;20186;-72
2024/03/19 06:31:35;;;;;;;27.33;12.07;;;10.30;99.90;;;;;;5039684;28;20521;-73
2024/03/19 06:34:02;;;;;;;22.05;12.20;;;10.30;99.90;;;;;;5039406;28;20626;-74
2024/03/19 06:36:28;;;;;;;23.13;12.23;;;10.30;99.90;;;;;;5041117;28;20211;-74
2024/03/19 06:38:54;;;;;;;22.42;11.60;;;10.30;99.90;;;;;;5045058;28;20183;-73
2024/03/19 06:41:19;;;;;;;23.38;12.48;;;10.30;99.90;;;;;;5045088;28;21047;-75
2024/03/19 06:43:45;;;;;;;20.38;11.35;;;10.30;99.90;;;;;;5044923;28;20541;-73
2024/03/19 06:46:12;;;;;;;21.02;11.68;;;10.40;99.90;;;;;;5043466;28;20183;-75
2024/03/19 06:48:38;;;;;;;23.92;11.77;;;10.40;99.90;;;;;;5043970;28;20199;-73
2024/03/19 06:51:05;;;;;;;26.52;11.88;;;10.40;99.90;;;;;;5059956;28;20222;-73
2024/03/19 06:53:31;;;;;;;21.75;11.98;;;10.50;99.90;;;;;;5044776;28;20328;-73
2024/03/19 06:55:57;;;;;;;20.50;11.57;;;10.50;99.90;;;;;;5044797;28;20206;-75
2024/03/19 06:58:23;;;;;;;24.73;12.15;;;10.60;99.90;;;;;;5044784;28;20191;-72
2024/03/19 07:00:51;;;;;;;23.90;12.63;;;10.70;99.90;;;;;;5044848;28;20183;-74
2024/03/19 07:03:20;;;;;;;25.95;12.73;;;10.70;99.90;;;;;;5042994;28;20275;-73
2024/03/19 07:05:46;;;;;;;22.70;12.50;;;10.80;99.90;;;;;;5044493;28;20274;-74
2024/03/19 07:08:12;;;;;;;23.65;12.38;;;10.90;99.90;;;;;;5044655;28;20278;-74
2024/03/19 07:10:39;;;;;;;24.27;13.40;;;10.90;99.90;;;;;;5042683;28;20592;-74
2024/03/19 07:13:04;;;;;;;25.40;12.88;;;11.00;99.90;;;;;;5044385;28;20644;-74
2024/03/19 07:15:30;;;;;;;25.15;12.77;;;11.10;99.90;;;;;;5044528;28;20203;-73
2024/03/19 07:17:56;;;;;;;23.10;13.27;;;11.20;99.90;;;;;;5026177;28;20237;-71
2024/03/19 07:20:24;;;;;;;29.95;14.35;;;11.20;99.90;;;;;;5044370;28;20187;-69
2024/03/19 07:22:50;;;;;;;21.73;13.07;;;11.30;99.90;;;;;;5042206;28;20202;-70
2024/03/19 07:25:16;;;;;;;24.25;12.73;;;11.40;99.90;;;;;;5042617;28;20188;-70
2024/03/19 07:27:43;;;;;;;21.15;12.90;;;11.50;99.90;;;;;;5043795;28;20218;-72
2024/03/19 07:30:11;;;;;;;27.02;13.07;;;11.50;99.90;;;;;;5043936;28;20191;-72
2024/03/19 07:32:41;;;;;;;23.58;12.93;;;11.60;99.90;;;;;;5043998;28;20218;-71
2024/03/19 07:35:08;;;;;;;29.30;14.70;;;11.60;99.90;;;;;;5043984;28;20199;-69
2024/03/19 07:37:38;;;;;;;20.58;12.77;;;11.70;99.90;;;;;;5042636;28;20187;-71
2024/03/19 07:40:09;;;;;;;21.05;12.85;;;11.70;99.90;;;;;;5044010;28;20195;-70
2024/03/19 07:42:37;;;;;;;24.23;12.20;;;11.80;99.90;;;;;;5044045;28;20207;-72
2024/03/19 07:45:03;;;;;;;24.73;12.98;;;11.80;99.90;;;;;;5043865;28;20187;-74
2024/03/19 08:00:34;;;;;;;21.08;11.15;;;12.10;99.90;;;;;;4910476;29;20278;-70
2024/03/19 08:02:59;;;;;;;21.45;10.80;;;12.20;99.90;;;;;;4919812;29;20830;-68
2024/03/19 08:05:26;;;;;;;26.63;11.57;;;12.20;99.90;;;;;;4921007;29;20203;-67
2024/03/19 08:07:52;;;;;;;18.85;12.02;;;12.30;99.90;;;;;;4905408;29;20204;-67
2024/03/19 08:10:18;;;;;;;18.92;10.30;;;12.30;99.90;;;;;;4922819;29;20288;-69
2024/03/19 08:12:44;;;;;;;19.67;10.68;;;12.40;99.90;;;;;;4921558;29;20234;-68
2024/03/19 08:15:10;;;;;;;18.60;10.68;;;12.40;99.90;;;;;;4919030;29;20234;-69
2024/03/19 08:17:36;;;;;;;20.45;10.55;;;12.40;99.90;;;;;;4917589;29;20320;-71
2024/03/19 08:20:07;;;;;;;19.45;10.20;;;12.50;99.90;;;;;;4920210;29;20298;-70
2024/03/19 08:22:33;;;;;;;20.77;9.90;;;12.50;99.90;;;;;;4923006;29;20246;-70
2024/03/19 08:25:04;;;;;;;19.67;10.30;;;12.50;99.90;;;;;;4905935;29;20227;-71
2024/03/19 08:27:30;;;;;;;22.42;10.90;;;12.50;99.90;;;;;;4920669;29;20211;-70
2024/03/19 08:29:58;;;;;;;16.55;10.20;;;12.60;99.90;;;;;;4928041;29;20250;-70
2024/03/19 08:32:23;;;;;;;18.70;10.40;;;12.60;99.90;;;;;;4953725;28;20217;-72
2024/03/19 08:34:49;;;;;;;20.77;9.82;;;12.60;99.90;;;;;;4967369;28;20221;-72
2024/03/19 08:37:15;;;;;;;17.25;9.75;;;12.70;99.90;;;;;;4991462;28;20684;-73
2024/03/19 08:39:41;;;;;;;14.95;9.88;;;12.70;99.90;;;;;;5042978;28;20187;-69
2024/03/19 08:42:06;;;;;;;17.20;9.65;;;12.80;99.90;;;;;;5042970;28;20301;-71
2024/03/19 08:44:32;;;;;;;23.35;10.27;;;12.80;99.90;;;;;;5043006;28;20240;-70
2024/03/19 08:46:58;;;;;;;17.70;9.25;;;12.80;99.90;;;;;;5043047;28;20238;-69
2024/03/19 08:49:23;;;;;;;20.75;10.02;;;12.90;99.90;;;;;;5038880;28;20184;-71
2024/03/19 08:51:49;;;;;;;19.98;10.07;;;12.90;99.90;;;;;;5042790;28;20191;-73
2024/03/19 08:54:15;;;;;;;20.73;9.25;;;13.00;99.90;;;;;;5040585;28;20570;-70
2024/03/19 08:56:41;;;;;;;17.10;8.73;;;13.10;99.90;;;;;;5041753;28;20585;-68
2024/03/19 08:59:07;;;;;;;17.02;9.68;;;13.20;99.90;;;;;;5041236;28;20191;-72
2024/03/19 09:01:33;;;;;;;18.25;8.70;;;13.30;99.90;;;;;;5038034;28;20191;-71
2024/03/19 09:03:59;;;;;;;15.05;9.10;;;13.30;99.90;;;;;;5042180;28;20191;-71
2024/03/19 09:06:25;;;;;;;28.60;15.35;;;13.50;99.90;;;;;;5040808;28;20229;-71
2024/03/19 09:08:52;;;;;;;16.20;8.88;;;13.60;99.90;;;;;;5041835;28;20294;-71
2024/03/19 09:11:17;;;;;;;17.45;8.43;;;13.70;99.90;;;;;;5042156;28;20234;-71
2024/03/19 09:13:43;;;;;;;13.27;8.60;;;13.80;99.90;;;;;;5042346;28;20257;-70
2024/03/19 09:16:09;;;;;;;18.70;8.55;;;13.80;99.90;;;;;;5042045;28;20226;-70
2024/03/19 09:18:35;;;;;;;15.20;8.20;;;13.90;99.90;;;;;;5041944;28;20186;-71
2024/03/19 09:21:00;;;;;;;15.32;7.20;;;14.00;99.90;;;;;;5041207;28;20604;-70
2024/03/19 09:23:26;;;;;;;15.82;7.43;;;14.20;99.90;;;;;;5041952;28;20237;-71
2024/03/19 09:25:53;;;;;;;13.02;6.65;;;14.20;99.90;;;;;;5040388;28;20183;-71
2024/03/19 09:28:19;;;;;;;11.80;6.60;;;14.30;99.90;;;;;;5042140;28;21251;-70
2024/03/19 09:30:45;;;;;;;10.60;6.13;;;14.40;99.90;;;;;;5040674;28;20191;-72
2024/03/19 09:33:11;;;;;;;11.13;6.03;;;14.50;99.90;;;;;;5056930;28;20539;-68
2024/03/19 09:35:37;;;;;;;12.50;6.50;;;14.50;99.90;;;;;;5041804;28;20276;-72
2024/03/19 09:38:03;;;;;;;11.85;6.10;;;14.60;99.90;;;;;;5041224;28;20180;-72
2024/03/19 09:40:30;;;;;;;12.52;5.43;;;14.60;99.90;;;;;;5040365;28;20191;-72
2024/03/19 09:42:55;;;;;;;8.75;5.43;;;14.70;99.90;;;;;;5040994;28;20283;-71
2024/03/19 09:45:29;;;;;;;18.48;5.65;;;14.70;99.90;;;;;;5055966;28;20281;-70
2024/03/19 09:47:56;;;;;;;10.40;5.65;;;14.80;99.90;;;;;;5041298;28;21006;-72
2024/03/19 09:50:23;;;;;;;9.65;5.30;;;14.90;99.90;;;;;;5023016;28;20272;-70
2024/03/19 09:52:55;;;;;;;12.20;5.70;;;15.00;99.90;;;;;;5041584;28;20636;-72
2024/03/19 09:55:22;;;;;;;11.98;5.82;;;15.10;99.90;;;;;;5041333;28;20230;-72
2024/03/19 09:57:50;;;;;;;9.75;4.95;;;15.20;99.90;;;;;;5040092;28;20274;-71
2024/03/19 10:00:23;;;;;;;10.60;5.10;;;15.30;99.90;;;;;;5040806;28;20193;-70
2024/03/19 10:02:50;;;;;;;11.13;5.00;;;15.40;99.90;;;;;;5041506;28;20199;-69
2024/03/19 10:05:15;;;;;;;9.38;4.80;;;15.40;99.90;;;;;;5041588;28;20202;-71
2024/03/19 10:07:41;;;;;;;11.02;4.65;;;15.40;99.90;;;;;;5023865;28;20635;-71
2024/03/19 10:10:07;;;;;;;14.98;5.80;;;15.40;99.90;;;;;;5041894;28;20194;-71
2024/03/19 10:12:34;;;;;;;13.70;5.75;;;15.40;99.90;;;;;;5040787;28;20238;-70
2024/03/19 10:15:06;;;;;;;10.65;5.13;;;15.40;99.90;;;;;;5040541;28;20297;-72
2024/03/19 10:17:32;;;;;;;8.25;4.72;;;15.50;99.90;;;;;;5041046;28;20288;-71
2024/03/19 10:19:57;;;;;;;9.52;4.30;;;15.60;99.90;;;;;;5039908;28;20251;-72
2024/03/19 10:22:26;;;;;;;10.48;5.03;;;15.70;99.90;;;;;;5041210;28;20202;-71
2024/03/19 10:24:51;;;;;;;10.77;4.30;;;15.70;99.90;;;;;;5056233;28;20186;-70
2024/03/19 10:27:17;;;;;;;12.25;4.28;;;15.80;99.90;;;;;;5041104;28;20203;-71
2024/03/19 10:29:47;;;;;;;8.70;3.72;;;15.80;99.90;;;;;;5040904;28;20651;-72
2024/03/19 10:32:13;;;;;;;9.38;3.75;;;15.90;99.90;;;;;;5041041;28;20194;-70
2024/03/19 10:34:38;;;;;;;7.97;4.25;;;15.80;99.90;;;;;;5041062;28;20191;-69
2024/03/19 10:37:05;;;;;;;9.32;4.05;;;15.80;99.90;;;;;;5041180;28;21153;-69
2024/03/19 10:39:31;;;;;;;9.07;4.80;;;15.70;99.90;;;;;;5040192;28;20191;-70
2024/03/19 10:42:03;;;;;;;11.00;4.97;;;15.60;99.90;;;;;;5039379;28;20193;-71
2024/03/19 10:44:33;;;;;;;6.43;3.88;;;15.60;99.90;;;;;;5040586;28;20211;-70
2024/03/19 10:46:59;;;;;;;7.05;3.58;;;15.70;99.90;;;;;;5039577;28;20191;-71
2024/03/19 10:49:29;;;;;;;6.25;3.58;;;15.70;99.90;;;;;;5041045;28;20184;-73
2024/03/19 10:52:02;;;;;;;9.52;3.72;;;15.80;99.90;;;;;;5039728;28;20199;-72
2024/03/19 10:54:32;;;;;;;8.93;3.72;;;15.80;99.90;;;;;;5040786;28;20207;-72
2024/03/19 10:57:00;;;;;;;8.23;4.10;;;15.80;99.90;;;;;;5027153;28;20256;-73
2024/03/19 10:59:36;;;;;;;7.03;3.35;;;15.80;99.90;;;;;;5040591;28;20279;-70
2024/03/19 11:02:05;;;;;;;9.02;3.75;;;15.80;99.90;;;;;;5040831;28;20198;-69
2024/03/19 11:04:31;;;;;;;6.13;3.38;;;15.80;99.90;;;;;;5055804;28;20278;-70
2024/03/19 11:07:01;;;;;;;6.45;3.60;;;15.90;99.90;;;;;;5040311;28;20219;-70
2024/03/19 11:09:28;;;;;;;6.55;3.50;;;15.90;99.90;;;;;;5039491;28;20730;-70
2024/03/19 11:11:56;;;;;;;6.82;3.53;;;16.10;99.90;;;;;;5040074;28;20227;-69
2024/03/19 11:14:23;;;;;;;8.13;3.58;;;16.10;99.90;;;;;;5040414;28;20191;-72
2024/03/19 11:16:49;;;;;;;7.97;3.38;;;16.20;99.90;;;;;;5040428;28;20705;-71
2024/03/19 11:19:25;;;;;;;6.35;3.20;;;16.30;99.90;;;;;;5040270;28;20191;-69
2024/03/19 11:21:56;;;;;;;8.50;3.80;;;16.30;99.90;;;;;;5040151;28;20241;-71
2024/03/19 11:24:24;;;;;;;6.82;3.78;;;16.40;99.90;;;;;;5041514;28;20191;-71
2024/03/19 11:26:56;;;;;;;7.25;3.50;;;16.40;99.90;;;;;;5043933;28;20435;-71
2024/03/19 11:29:27;;;;;;;7.55;3.72;;;16.50;99.90;;;;;;5044356;28;20195;-70
2024/03/19 11:32:00;;;;;;;8.15;3.75;;;16.60;99.90;;;;;;5043950;28;20195;-69
2024/03/19 11:34:27;;;;;;;9.63;3.60;;;16.60;99.90;;;;;;5044068;28;20195;-70
2024/03/19 11:36:54;;;;;;;8.25;3.72;;;16.70;99.90;;;;;;5059291;28;20618;-71
2024/03/19 11:39:20;;;;;;;7.18;3.63;;;16.70;99.90;;;;;;5059017;28;20191;-72
2024/03/19 11:41:47;;;;;;;6.78;3.25;;;16.70;99.90;;;;;;5043831;28;20255;-71
2024/03/19 11:44:17;;;;;;;10.60;3.60;;;16.80;99.90;;;;;;5043809;28;20202;-70
2024/03/19 11:46:46;;;;;;;7.32;3.42;;;16.80;99.90;;;;;;5044078;28;20647;-71
2024/03/19 11:49:22;;;;;;;7.53;2.70;;;16.80;99.90;;;;;;5043306;28;20191;-71
2024/03/19 11:51:59;;;;;;;5.72;3.00;;;16.80;99.90;;;;;;5043119;28;20187;-71
2024/03/19 11:54:26;;;;;;;6.50;2.92;;;16.90;99.90;;;;;;5043403;28;20206;-71
2024/03/19 11:56:54;;;;;;;8.48;3.33;;;16.90;99.90;;;;;;5042999;28;20584;-69
2024/03/19 11:59:24;;;;;;;4.22;3.00;;;16.90;99.90;;;;;;5043833;28;20271;-68
2024/03/19 12:01:51;;;;;;;5.70;3.30;;;16.90;99.90;;;;;;5042480;28;20659;-72
2024/03/19 12:04:20;;;;;;;6.15;3.42;;;16.90;99.90;;;;;;5043651;28;20207;-70
2024/03/19 12:06:47;;;;;;;5.97;3.30;;;16.80;99.90;;;;;;5043619;28;20191;-71
2024/03/19 12:09:17;;;;;;;8.95;3.10;;;16.90;99.90;;;;;;5042993;28;20194;-70
2024/03/19 12:11:44;;;;;;;10.40;3.35;;;16.80;99.90;;;;;;5043021;28;20226;-70
2024/03/19 12:14:16;;;;;;;6.00;2.90;;;16.90;99.90;;;;;;5041500;28;20187;-69
2024/03/19 12:16:43;;;;;;;6.70;3.08;;;16.90;99.90;;;;;;5043373;28;20219;-74
2024/03/19 12:19:14;;;;;;;5.80;3.13;;;16.90;99.90;;;;;;5058266;28;20633;-70
2024/03/19 12:21:49;;;;;;;6.70;3.05;;;16.90;99.90;;;;;;5041364;28;20183;-71
2024/03/19 12:24:19;;;;;;;7.85;3.40;;;17.00;99.90;;;;;;5042682;28;20187;-68
2024/03/19 12:26:47;;;;;;;8.10;3.00;;;17.10;99.90;;;;;;5042538;28;20536;-72
2024/03/19 12:29:14;;;;;;;8.02;3.30;;;17.20;99.90;;;;;;5057695;28;20191;-69
2024/03/19 12:34:37;;;;;;;8.82;3.67;;;17.30;99.90;;;;;;5042625;28;20195;-70
2024/03/19 12:37:08;;;;;;;8.38;3.13;;;17.30;99.90;;;;;;5040882;28;20615;-70
2024/03/19 12:39:34;;;;;;;7.75;3.42;;;17.30;99.90;;;;;;5041048;28;20188;-71
2024/03/19 12:41:59;;;;;;;4.97;3.10;;;17.30;99.90;;;;;;5042108;28;20198;-71
2024/03/19 12:44:27;;;;;;;4.30;3.00;;;17.40;99.90;;;;;;5041684;28;20188;-71
2024/03/19 12:46:53;;;;;;;5.53;3.00;;;17.40;99.90;;;;;;5041418;28;20199;-70
2024/03/19 12:49:25;;;;;;;5.55;3.17;;;17.40;99.90;;;;;;5042744;28;20241;-70